Time;durP1;ratioP1;P1;durP2;ratioP2;P2;SDS_P1;SDS_P2;PMS_P1;PMS_P2;Temp;Humidity;BMP_temperature;BMP_pressure;BME280_temperature;BME280_humidity;BME280_pressure;Samples;Min_cycle;Max_cycle;Signal;HPM_P1;HPM_P2
2022/09/15 00:00:45;;;;;;;;;36.25;33.00;;;;;24.36;56.20;97417.75;6164217;28;98107;-58
2022/09/15 00:03:50;;;;;;;;;40.00;36.00;;;;;24.36;56.21;97409.47;6165972;28;97134;-57
2022/09/15 00:06:54;;;;;;;;;39.00;35.00;;;;;24.25;56.35;97380.81;6164514;28;97664;-57
2022/09/15 00:09:57;;;;;;;;;28.25;26.25;;;;;24.24;56.35;97365.44;6166583;28;97870;-56
2022/09/15 00:13:03;;;;;;;;;37.00;33.40;;;;;24.36;56.37;97379.19;6163336;28;97800;-56
2022/09/15 00:16:07;;;;;;;;;36.00;33.00;;;;;24.12;56.32;97338.72;6164281;28;97700;-59
2022/09/15 00:19:12;;;;;;;;;42.40;37.00;;;;;24.36;56.27;97368.16;6167019;28;96749;-59
2022/09/15 00:22:17;;;;;;;;;33.40;31.40;;;;;24.14;56.07;97316.34;6163375;28;98142;-57
2022/09/15 00:25:20;;;;;;;;;33.40;31.40;;;;;24.34;56.02;97340.16;6163312;28;97385;-58
2022/09/15 00:28:23;;;;;;;;;35.00;33.00;;;;;24.34;56.10;97333.84;6162923;28;96494;-56
2022/09/15 00:31:29;;;;;;;;;42.20;37.00;;;;;24.32;56.24;97328.72;6163062;28;97405;-57
2022/09/15 00:34:34;;;;;;;;;38.40;34.40;;;;;24.16;56.43;97316.78;6163538;28;97550;-57
2022/09/15 00:37:37;;;;;;;;;38.00;34.50;;;;;24.32;56.50;97342.47;6162726;28;97049;-57
2022/09/15 00:40:45;;;;;;;;;39.25;35.00;;;;;24.33;56.42;97338.56;6163194;28;96572;-58
2022/09/15 00:43:52;;;;;;;;;36.60;33.60;;;;;24.34;56.45;97331.09;6162084;28;97106;-57
2022/09/15 00:46:57;;;;;;;;;38.00;34.60;;;;;24.34;56.57;97320.06;6162432;28;97530;-59
2022/09/15 00:50:22;;;;;;;;;40.20;35.00;;;;;24.36;56.41;97309.53;6177772;28;96898;-57
2022/09/15 00:53:27;;;;;;;;;34.25;32.25;;;;;24.36;56.49;97313.09;6167435;28;97782;-57
2022/09/15 00:56:32;;;;;;;;;39.60;35.60;;;;;24.36;56.59;97309.53;6167449;28;97138;-55
2022/09/15 00:59:39;;;;;;;;;38.00;34.00;;;;;24.35;56.44;97303.22;6170655;28;97439;-57
2022/09/15 01:02:44;;;;;;;;;39.00;35.00;;;;;24.13;56.50;97271.47;6162704;28;96603;-57
2022/09/15 01:05:54;;;;;;;;;39.00;35.00;;;;;24.34;56.36;97292.53;6162716;28;96604;-56
2022/09/15 01:09:04;;;;;;;;;38.50;35.00;;;;;24.34;56.13;97307.09;6163248;28;96824;-57
2022/09/15 01:12:07;;;;;;;;;37.75;34.00;;;;;24.28;55.90;97293.97;6162914;28;97400;-56
2022/09/15 01:15:11;;;;;;;;;37.67;34.67;;;;;24.32;56.04;97292.91;6162472;28;96939;-57
2022/09/15 01:18:20;;;;;;;;;42.40;37.40;;;;;24.33;56.19;97285.44;6152835;28;96455;-56
2022/09/15 01:21:51;;;;;;;;;33.75;32.00;;;;;24.33;56.38;97268.91;6163836;28;96922;-57
2022/09/15 01:25:08;;;;;;;;;34.00;32.00;;;;;24.33;56.36;97275.22;6169858;28;97632;-56
2022/09/15 01:28:37;;;;;;;;;41.00;36.00;;;;;24.24;56.28;97257.25;6172419;28;98945;-57
2022/09/15 01:35:13;;;;;;;;;39.00;35.00;;;;;24.35;56.26;97277.63;6171166;28;97596;-57
2022/09/15 01:38:28;;;;;;;;;36.40;33.40;;;;;24.35;56.37;97283.13;6180786;28;97507;-57
2022/09/15 01:41:38;;;;;;;;;35.60;33.00;;;;;24.34;56.38;97270.50;6182623;28;97434;-58
2022/09/15 01:44:46;;;;;;;;;39.25;35.00;;;;;24.33;56.33;97278.00;6168596;28;97477;-57
2022/09/15 01:47:53;;;;;;;;;35.00;32.00;;;;;24.13;56.43;97249.47;6170674;28;96612;-57
2022/09/15 01:51:00;;;;;;;;;38.40;34.40;;;;;24.36;56.69;97269.00;6170570;28;97476;-57
2022/09/15 01:54:06;;;;;;;;;40.50;36.00;;;;;24.37;56.69;97264.31;6169565;28;96933;-59
2022/09/15 01:57:10;;;;;;;;;41.40;36.40;;;;;24.37;56.66;97265.13;6170033;28;97494;-57
2022/09/15 02:00:14;;;;;;;;;39.00;35.00;;;;;24.40;56.54;97263.59;6170133;28;96955;-57
2022/09/15 02:03:24;;;;;;;;;36.40;33.40;;;;;24.41;56.56;97262.44;6170212;28;96830;-57
2022/09/15 02:06:34;;;;;;;;;38.00;35.00;;;;;24.41;56.56;97271.53;6170691;28;98480;-57
2022/09/15 02:09:45;;;;;;;;;34.20;32.00;;;;;24.42;56.36;97269.56;6169381;28;98871;-57
2022/09/15 02:12:57;;;;;;;;;33.60;32.00;;;;;24.45;56.43;97263.34;6172851;28;97489;-57
2022/09/15 02:16:01;;;;;;;;;35.00;33.00;;;;;24.34;56.27;97245.72;6157330;28;96627;-57
2022/09/15 02:19:14;;;;;;;;;35.80;33.00;;;;;24.47;56.29;97269.31;6178486;28;97454;-57
2022/09/15 02:22:22;;;;;;;;;30.60;30.00;;;;;24.46;56.38;97267.72;6170442;28;97477;-59
2022/09/15 02:25:30;;;;;;;;;37.25;33.25;;;;;24.48;56.46;97265.41;6170488;28;97560;-57
2022/09/15 02:28:38;;;;;;;;;37.40;34.40;;;;;24.35;56.34;97239.06;6175477;28;98196;-57
2022/09/15 02:31:43;;;;;;;;;37.80;33.00;;;;;24.29;56.19;97226.72;6171960;28;98055;-57
2022/09/15 02:34:50;;;;;;;;;39.60;35.40;;;;;24.49;56.13;97258.72;6171980;28;97278;-56
2022/09/15 02:37:55;;;;;;;;;36.60;33.00;;;;;24.27;55.93;97218.78;6166061;28;97133;-57
2022/09/15 02:41:00;;;;;;;;;37.50;33.50;;;;;24.47;55.85;97250.84;6165447;28;98726;-56
2022/09/15 02:44:03;;;;;;;;;38.00;33.75;;;;;24.46;55.91;97253.94;6165229;28;97513;-57
2022/09/15 02:47:07;;;;;;;;;33.20;31.20;;;;;24.46;55.86;97251.19;6165860;28;97464;-57
2022/09/15 02:50:12;;;;;;;;;38.00;34.33;;;;;24.45;56.21;97260.59;6171743;28;97477;-56
2022/09/15 02:53:15;;;;;;;;;35.00;33.00;;;;;24.43;56.06;97249.94;6163128;28;97460;-56
2022/09/15 02:56:18;;;;;;;;;38.60;34.60;;;;;24.43;56.47;97254.66;6165967;28;97022;-58
2022/09/15 02:59:22;;;;;;;;;32.75;30.75;;;;;24.40;56.03;97241.56;6164318;28;97518;-57
2022/09/15 03:02:25;;;;;;;;;39.60;35.60;;;;;24.38;56.06;97243.88;6162702;28;97040;-57
2022/09/15 03:05:30;;;;;;;;;43.00;36.75;;;;;24.36;56.45;97240.66;6163110;28;96937;-57
2022/09/15 03:08:34;;;;;;;;;38.60;33.60;;;;;24.34;56.23;97231.94;6164776;28;97505;-57
2022/09/15 03:11:37;;;;;;;;;38.40;35.00;;;;;24.33;56.47;97238.63;6172989;28;97455;-56
2022/09/15 03:14:40;;;;;;;;;36.20;33.00;;;;;24.32;56.49;97245.28;6164237;28;96738;-59
2022/09/15 03:17:45;;;;;;;;;35.00;33.00;;;;;24.31;56.46;97240.91;6165871;28;97425;-60
2022/09/15 03:20:49;;;;;;;;;38.50;35.00;;;;;24.29;56.47;97238.50;6151465;28;96706;-55
2022/09/15 03:23:53;;;;;;;;;27.80;26.80;;;;;24.28;56.26;97242.44;6166591;28;97163;-58
2022/09/15 03:26:56;;;;;;;;;40.00;35.80;;;;;24.22;56.50;97224.56;6168895;28;97481;-58
2022/09/15 03:29:59;;;;;;;;;30.50;30.00;;;;;24.16;56.53;97229.50;6171810;28;97080;-58
2022/09/15 03:33:05;;;;;;;;;30.40;30.00;;;;;24.25;57.05;97237.63;6176642;28;97785;-57
2022/09/15 03:36:10;;;;;;;;;36.00;33.00;;;;;24.25;56.81;97229.34;6163577;28;97107;-57
2022/09/15 03:39:14;;;;;;;;;35.40;32.00;;;;;24.26;56.76;97232.91;6164166;28;97052;-56
2022/09/15 03:42:17;;;;;;;;;37.40;34.00;;;;;24.26;56.82;97225.44;6161099;28;97240;-55
2022/09/15 03:45:20;;;;;;;;;36.00;33.00;;;;;24.26;56.87;97233.72;6163946;28;96637;-57
2022/09/15 03:48:25;;;;;;;;;37.50;34.00;;;;;24.25;56.77;97225.78;6161373;28;97827;-56
2022/09/15 03:51:29;;;;;;;;;42.50;36.00;;;;;24.27;56.99;97229.00;6165145;28;97197;-56
2022/09/15 03:54:34;;;;;;;;;35.80;32.40;;;;;24.26;56.79;97225.44;6163734;28;96545;-60
2022/09/15 03:57:37;;;;;;;;;36.00;33.00;;;;;24.14;56.71;97212.50;6163431;28;96965;-59
2022/09/15 04:00:41;;;;;;;;;36.20;32.60;;;;;24.24;56.82;97222.22;6162831;28;96439;-58
2022/09/15 04:03:44;;;;;;;;;48.20;41.20;;;;;24.23;56.84;97217.91;6162429;28;98520;-57
2022/09/15 04:06:54;;;;;;;;;41.60;36.20;;;;;24.21;56.85;97220.19;6163097;28;97175;-58
2022/09/15 04:09:57;;;;;;;;;32.20;31.20;;;;;24.22;56.93;97213.53;6170788;28;97451;-60
2022/09/15 04:13:01;;;;;;;;;45.00;39.00;;;;;24.21;56.83;97208.38;6163012;28;97558;-57
2022/09/15 04:16:06;;;;;;;;;41.80;36.60;;;;;24.22;56.81;97212.75;6162453;28;96696;-57
2022/09/15 04:19:10;;;;;;;;;37.80;34.20;;;;;24.24;56.76;97213.19;6161737;28;97786;-58
2022/09/15 04:22:15;;;;;;;;;43.20;37.60;;;;;24.24;56.86;97208.47;6163838;28;96692;-61
2022/09/15 04:25:20;;;;;;;;;45.00;38.00;;;;;24.25;56.91;97209.28;6162231;28;96840;-58
2022/09/15 04:28:23;;;;;;;;;43.00;37.50;;;;;24.27;56.96;97205.03;6161038;28;97335;-59
2022/09/15 04:31:26;;;;;;;;;47.40;41.00;;;;;24.29;56.65;97199.19;6159393;28;97429;-61
2022/09/15 04:34:30;;;;;;;;;39.00;35.20;;;;;24.31;56.69;97205.13;6159595;28;96980;-60
2022/09/15 04:37:34;;;;;;;;;38.00;34.20;;;;;24.32;56.40;97204.78;6157429;28;97352;-58
2022/09/15 04:40:38;;;;;;;;;36.60;33.20;;;;;24.36;56.70;97197.41;6160505;28;98063;-56
2022/09/15 04:43:42;;;;;;;;;35.20;32.80;;;;;24.39;56.70;97190.38;6160192;28;99188;-57
2022/09/15 04:46:45;;;;;;;;;44.00;37.50;;;;;24.41;56.54;97190.84;6162056;28;96760;-57
2022/09/15 04:49:48;;;;;;;;;44.20;38.20;;;;;24.44;56.78;97192.88;6162421;28;97455;-55
2022/09/15 04:52:54;;;;;;;;;47.20;40.80;;;;;24.46;56.55;97201.59;6160641;28;97176;-57
2022/09/15 04:56:07;;;;;;;;;42.40;36.20;;;;;24.49;56.50;97198.94;6160859;28;96913;-60
2022/09/15 04:59:14;;;;;;;;;39.25;35.00;;;;;24.51;56.68;97204.09;6152704;28;97561;-58
2022/09/15 05:02:17;;;;;;;;;40.40;35.60;;;;;24.51;56.32;97199.38;6151438;28;96430;-59
2022/09/15 05:05:21;;;;;;;;;37.00;33.40;;;;;24.51;56.27;97198.59;6162164;28;97478;-60
2022/09/15 05:08:26;;;;;;;;;38.40;35.00;;;;;24.54;56.33;97203.38;6162134;28;96691;-59
2022/09/15 05:11:29;;;;;;;;;35.80;32.40;;;;;24.51;56.41;97188.38;6162387;28;97418;-59
2022/09/15 05:14:33;;;;;;;;;34.40;32.40;;;;;24.57;56.44;97200.75;6161450;28;97436;-56
2022/09/15 05:17:36;;;;;;;;;30.25;29.00;;;;;24.60;56.27;97197.28;6158269;28;97226;-63
2022/09/15 05:20:39;;;;;;;;;34.00;32.00;;;;;24.64;56.27;97196.56;6161657;28;97235;-57
2022/09/15 05:23:45;;;;;;;;;34.50;32.75;;;;;24.66;56.16;97203.31;6161546;28;97656;-56
2022/09/15 05:26:48;;;;;;;;;46.80;40.40;;;;;24.69;56.03;97197.09;6161713;28;96635;-56
2022/09/15 05:29:51;;;;;;;;;34.20;32.20;;;;;24.73;56.10;97197.97;6160316;28;97460;-59
2022/09/15 05:33:15;;;;;;;;;25.00;25.00;;;;;24.75;56.04;97192.13;6161135;28;96812;-61
2022/09/15 05:36:20;;;;;;;;;40.80;35.20;;;;;24.70;55.60;97189.63;6161822;28;96494;-59
2022/09/15 05:39:25;;;;;;;;;39.60;35.60;;;;;24.78;55.99;97203.22;6160841;28;98246;-58
2022/09/15 05:42:30;;;;;;;;;42.00;36.60;;;;;24.78;56.12;97197.72;6162165;28;97649;-59
2022/09/15 05:45:33;;;;;;;;;34.75;32.50;;;;;24.82;55.95;97195.88;6161549;28;97300;-64
2022/09/15 05:48:37;;;;;;;;;52.25;44.25;;;;;24.84;55.68;97199.06;6159361;28;97176;-61
2022/09/15 05:51:41;;;;;;;;;39.80;35.40;;;;;24.86;55.82;97193.19;6162904;28;97154;-63
2022/09/15 05:54:46;;;;;;;;;36.40;33.60;;;;;24.90;55.69;97196.88;6160921;28;97824;-58
2022/09/15 05:57:49;;;;;;;;;41.00;36.50;;;;;24.89;55.85;97196.06;6160611;28;97481;-55
2022/09/15 06:00:53;;;;;;;;;14.60;14.60;;;;;24.94;55.71;97197.75;6161763;28;97430;-58
2022/09/15 06:03:57;;;;;;;;;36.80;33.00;;;;;24.96;55.70;97201.78;6162769;28;97527;-59
2022/09/15 06:07:00;;;;;;;;;37.80;34.00;;;;;25.01;55.53;97198.75;6165807;28;97212;-62
2022/09/15 06:10:06;;;;;;;;;39.40;35.40;;;;;25.05;55.30;97196.06;6165523;28;97500;-59
2022/09/15 06:13:11;;;;;;;;;44.25;38.25;;;;;25.11;55.22;97202.94;6165851;28;96774;-61
2022/09/15 06:16:17;;;;;;;;;19.75;19.00;;;;;25.16;54.87;97191.63;6164815;28;97033;-58
2022/09/15 06:19:20;;;;;;;;;33.40;31.80;;;;;25.23;54.79;97194.53;6163017;28;96984;-59
2022/09/15 06:22:24;;;;;;;;;43.33;38.00;;;;;25.19;54.94;97181.81;6163813;28;98100;-59
2022/09/15 06:25:28;;;;;;;;;39.60;35.00;;;;;25.35;54.44;97194.44;6163118;28;97550;-59
2022/09/15 06:28:32;;;;;;;;;38.50;34.50;;;;;25.33;53.99;97177.44;6163388;28;96811;-59
2022/09/15 06:31:36;;;;;;;;;41.80;36.60;;;;;25.49;53.68;97201.44;6164957;28;97508;-63
2022/09/15 06:34:39;;;;;;;;;27.00;27.00;;;;;25.56;53.33;97201.63;6165317;28;96577;-59
2022/09/15 06:37:42;;;;;;;;;32.00;31.20;;;;;25.63;53.25;97204.53;6164992;28;97327;-59
2022/09/15 06:40:54;;;;;;;;;35.40;32.40;;;;;25.68;52.83;97218.88;6165122;28;96650;-58
2022/09/15 06:43:58;;;;;;;;;36.80;33.80;;;;;25.73;52.79;97207.53;6163643;28;97775;-59
2022/09/15 06:47:02;;;;;;;;;37.75;34.75;;;;;25.78;52.43;97212.78;6164945;28;97041;-61
2022/09/15 06:50:06;;;;;;;;;42.80;37.40;;;;;25.84;52.49;97221.59;6163941;28;97370;-58
2022/09/15 06:53:10;;;;;;;;;29.00;28.00;;;;;25.89;52.36;97226.81;6164933;28;96887;-61
2022/09/15 06:56:16;;;;;;;;;38.60;35.00;;;;;25.85;52.50;97226.72;6164325;28;97461;-57
2022/09/15 06:59:22;;;;;;;;;43.00;37.00;;;;;25.98;52.33;97238.44;6164913;28;96918;-58
2022/09/15 07:02:25;;;;;;;;;42.60;37.60;;;;;26.04;52.42;97238.97;6163773;28;97547;-60
2022/09/15 07:05:30;;;;;;;;;41.00;36.20;;;;;26.05;52.19;97246.06;6164519;28;96587;-59
2022/09/15 07:08:34;;;;;;;;;38.00;34.20;;;;;26.04;52.36;97250.81;6164790;28;97217;-59
2022/09/15 07:11:39;;;;;;;;;36.40;33.40;;;;;26.05;52.39;97265.41;6164334;28;97358;-58
2022/09/15 07:14:42;;;;;;;;;45.00;39.00;;;;;26.05;52.52;97281.97;6163559;28;96848;-60
2022/09/15 07:17:46;;;;;;;;;32.40;31.20;;;;;26.05;52.38;97288.28;6162870;28;96578;-59
2022/09/15 07:20:49;;;;;;;;;33.00;31.60;;;;;26.03;52.53;97284.31;6164171;28;97489;-59
2022/09/15 07:23:56;;;;;;;;;26.40;25.60;;;;;26.04;52.06;97288.69;6162986;28;97744;-60
2022/09/15 07:27:00;;;;;;;;;55.00;50.60;;;;;26.05;51.46;97296.56;6163844;28;97498;-61
2022/09/15 07:30:07;;;;;;;;;28.50;28.50;;;;;26.03;50.68;97307.19;6161165;28;96910;-56
2022/09/15 07:33:13;;;;;;;;;26.00;26.00;;;;;26.04;50.97;97313.53;6160870;28;96962;-62
2022/09/15 07:36:16;;;;;;;;;18.75;18.00;;;;;26.02;50.87;97313.06;6162459;28;97038;-57
2022/09/15 07:39:20;;;;;;;;;26.80;26.40;;;;;26.05;50.80;97315.91;6163020;28;96937;-58
2022/09/15 07:42:24;;;;;;;;;37.60;34.20;;;;;26.08;50.55;97317.16;6163003;28;97180;-62
2022/09/15 07:45:28;;;;;;;;;49.20;42.00;;;;;26.01;50.63;97319.75;6163657;28;97986;-59
2022/09/15 07:48:32;;;;;;;;;47.80;40.60;;;;;26.11;50.68;97327.47;6163326;28;96742;-60
2022/09/15 07:51:35;;;;;;;;;47.00;40.25;;;;;26.12;50.45;97334.59;6163634;28;97008;-63
2022/09/15 07:54:39;;;;;;;;;51.75;44.00;;;;;26.11;50.15;97342.09;6163900;28;97619;-59
2022/09/15 07:57:43;;;;;;;;;14.50;14.25;;;;;26.11;50.03;97355.91;6163209;28;97079;-60
2022/09/15 08:00:47;;;;;;;;;31.80;30.20;;;;;26.11;50.54;97379.94;6162587;28;96612;-59
2022/09/15 08:03:52;;;;;;;;;25.60;25.60;;;;;26.10;50.23;97383.88;6150777;28;97814;-59
2022/09/15 08:06:56;;;;;;;;;21.60;21.20;;;;;26.04;50.27;97393.63;6156193;28;97257;-60
2022/09/15 08:09:59;;;;;;;;;33.60;32.00;;;;;25.93;50.17;97396.13;6162267;28;97508;-61
2022/09/15 08:13:04;;;;;;;;;22.20;21.20;;;;;25.86;49.65;97429.06;6162012;28;96999;-59
2022/09/15 08:16:09;;;;;;;;;32.00;31.00;;;;;25.75;49.54;97434.34;6163337;28;96563;-61
2022/09/15 08:19:12;;;;;;;;;17.60;16.60;;;;;25.66;49.38;97433.69;6161924;28;96978;-58
2022/09/15 08:22:16;;;;;;;;;17.20;17.20;;;;;25.41;49.23;97412.91;6163443;28;97697;-58
2022/09/15 08:25:19;;;;;;;;;23.00;23.00;;;;;25.51;49.82;97445.47;6163146;28;96602;-60
2022/09/15 08:28:24;;;;;;;;;27.25;27.25;;;;;25.43;49.83;97463.00;6162869;28;96872;-59
2022/09/15 08:31:28;;;;;;;;;45.50;39.50;;;;;25.37;50.00;97467.97;6163074;28;97451;-56
2022/09/15 08:34:31;;;;;;;;;31.00;30.40;;;;;25.34;50.17;97471.44;6162911;28;97459;-59
2022/09/15 08:37:34;;;;;;;;;27.00;27.00;;;;;25.32;50.39;97478.44;6162654;28;97081;-58
2022/09/15 08:40:38;;;;;;;;;34.00;32.25;;;;;25.32;50.49;97482.00;6162770;28;97702;-60
2022/09/15 08:43:53;;;;;;;;;37.00;34.00;;;;;25.31;50.61;97487.91;6162402;28;98020;-60
2022/09/15 08:47:02;;;;;;;;;41.20;36.40;;;;;25.32;50.86;97481.22;6162857;28;97307;-62
2022/09/15 08:50:12;;;;;;;;;35.00;32.40;;;;;25.30;50.73;97491.81;6162895;28;97507;-59
2022/09/15 08:53:20;;;;;;;;;20.50;19.50;;;;;25.35;50.83;97491.56;6161491;28;97979;-57
2022/09/15 08:56:24;;;;;;;;;28.80;28.80;;;;;25.37;50.29;97497.50;6162957;28;96849;-57
2022/09/15 08:59:33;;;;;;;;;28.00;28.00;;;;;25.40;50.38;97500.38;6162319;28;97633;-59
2022/09/15 09:03:09;;;;;;;;;30.40;30.00;;;;;25.46;50.45;97509.22;6162891;28;96644;-59
2022/09/15 09:06:27;;;;;;;;;27.00;27.00;;;;;25.53;50.74;97519.63;6162618;28;96654;-59
2022/09/15 09:09:39;;;;;;;;;34.40;32.40;;;;;25.45;50.04;97493.81;6155580;28;96869;-58
2022/09/15 09:13:01;;;;;;;;;35.40;32.80;;;;;25.68;50.34;97530.75;6162322;28;97485;-59
2022/09/15 09:16:21;;;;;;;;;25.00;25.00;;;;;25.92;49.76;97549.13;6162434;28;97518;-59
2022/09/15 09:19:49;;;;;;;;;40.40;35.40;;;;;26.05;49.07;97545.13;6161488;28;97532;-58
2022/09/15 09:22:54;;;;;;;;;31.00;30.00;;;;;26.20;48.36;97544.34;6161999;28;97415;-60
2022/09/15 09:25:58;;;;;;;;;22.80;22.20;;;;;26.35;48.38;97551.06;6162426;28;96752;-60
2022/09/15 09:29:06;;;;;;;;;29.00;28.00;;;;;26.46;48.02;97562.38;6162174;28;97486;-59
2022/09/15 09:32:18;;;;;;;;;30.00;30.00;;;;;26.45;47.29;97553.28;6161134;28;99754;-61
2022/09/15 09:35:32;;;;;;;;;30.60;30.00;;;;;26.60;46.76;97562.72;6156844;28;97473;-59
2022/09/15 09:38:38;;;;;;;;;26.67;26.00;;;;;26.66;47.33;97564.84;6162784;28;97086;-59
2022/09/15 09:41:42;;;;;;;;;35.33;33.00;;;;;26.71;46.94;97569.31;6166320;28;98048;-59
2022/09/15 09:44:47;;;;;;;;;31.80;30.80;;;;;26.74;46.64;97557.53;6166532;28;96694;-59
2022/09/15 09:47:54;;;;;;;;;29.50;29.50;;;;;26.77;46.51;97567.06;6165640;28;96996;-60
2022/09/15 09:51:04;;;;;;;;;28.00;28.00;;;;;26.83;46.82;97571.94;6166453;28;97181;-64
2022/09/15 09:54:14;;;;;;;;;39.60;35.80;;;;;26.91;45.99;97576.53;6159100;28;97344;-58
2022/09/15 09:57:27;;;;;;;;;32.00;30.00;;;;;26.98;45.86;97575.88;6162687;28;97315;-60
2022/09/15 10:00:32;;;;;;;;;27.60;26.40;;;;;27.04;45.64;97579.97;6161221;28;97643;-61
2022/09/15 10:03:37;;;;;;;;;29.20;29.20;;;;;27.08;45.05;97573.34;6163799;28;97760;-60
2022/09/15 10:06:41;;;;;;;;;26.20;26.20;;;;;27.11;45.22;97569.88;6163798;28;97126;-58
2022/09/15 10:09:51;;;;;;;;;38.50;34.75;;;;;27.07;44.69;97576.50;6164035;28;97031;-58
2022/09/15 10:12:56;;;;;;;;;35.00;32.80;;;;;27.04;44.86;97579.97;6164585;28;98734;-59
2022/09/15 10:16:02;;;;;;;;;39.75;35.75;;;;;27.05;45.17;97587.91;6165629;28;97010;-59
2022/09/15 10:19:11;;;;;;;;;29.40;28.40;;;;;27.10;45.19;97581.31;6163337;28;97454;-58
2022/09/15 10:22:27;;;;;;;;;35.20;32.60;;;;;27.17;44.76;97568.41;6163037;28;97418;-57
2022/09/15 10:25:33;;;;;;;;;33.00;31.00;;;;;27.27;44.60;97569.81;6163692;28;97974;-59
2022/09/15 10:29:14;;;;;;;;;34.00;31.75;;;;;27.35;44.13;97566.06;6164192;28;97690;-60
2022/09/15 10:32:24;;;;;;;;;32.80;31.60;;;;;27.56;44.23;97576.81;6165373;28;97109;-58
2022/09/15 10:35:33;;;;;;;;;33.50;32.00;;;;;27.73;44.70;97570.00;6164518;28;97671;-59
2022/09/15 10:38:42;;;;;;;;;25.40;25.00;;;;;27.88;44.41;97572.69;6165030;28;97076;-58
2022/09/15 10:41:56;;;;;;;;;26.60;26.60;;;;;28.07;43.59;97566.31;6161298;28;97406;-59
2022/09/15 10:45:18;;;;;;;;;26.75;26.00;;;;;28.34;43.43;97568.03;6162967;28;98573;-59
2022/09/15 10:48:45;;;;;;;;;17.50;17.50;;;;;28.56;42.66;97566.38;6163803;28;97424;-60
2022/09/15 10:52:02;;;;;;;;;27.00;27.00;;;;;28.70;42.02;97566.63;6161018;28;97204;-59
2022/09/15 10:55:22;;;;;;;;;23.75;23.75;;;;;28.78;42.58;97564.81;6165529;28;96962;-60
2022/09/15 10:59:04;;;;;;;;;40.00;36.00;;;;;28.81;41.46;97566.81;6163091;28;97415;-58
2022/09/15 11:02:49;;;;;;;;;30.00;29.25;;;;;28.83;41.01;97568.03;6180298;28;97251;-58
2022/09/15 11:06:04;;;;;;;;;18.20;18.20;;;;;28.79;41.35;97561.63;6163155;28;97497;-60
2022/09/15 11:09:24;;;;;;;;;22.00;21.60;;;;;28.74;41.42;97552.81;6164792;28;97468;-59
2022/09/15 11:12:42;;;;;;;;;31.75;30.50;;;;;28.69;41.66;97553.13;6161634;28;97129;-59
2022/09/15 11:15:59;;;;;;;;;29.40;29.40;;;;;28.65;41.04;97552.25;6164340;28;97519;-60
2022/09/15 11:19:20;;;;;;;;;37.00;33.67;;;;;28.49;41.72;97546.09;6160284;28;97434;-59
2022/09/15 11:22:27;;;;;;;;;33.00;32.00;;;;;28.59;41.78;97551.00;6164293;28;97505;-59
2022/09/15 11:25:40;;;;;;;;;16.25;16.25;;;;;28.53;41.40;97541.38;6164427;28;97423;-59
2022/09/15 11:28:47;;;;;;;;;24.00;24.00;;;;;28.44;41.38;97547.97;6164078;28;97437;-58
2022/09/15 11:31:57;;;;;;;;;30.50;29.75;;;;;28.41;41.79;97540.41;6162662;28;97347;-58
2022/09/15 11:35:17;;;;;;;;;17.80;17.60;;;;;28.41;41.75;97543.19;6154433;28;97523;-54
2022/09/15 11:38:34;;;;;;;;;21.00;21.00;;;;;28.39;42.04;97528.09;6176275;28;97109;-61
2022/09/15 11:41:43;;;;;;;;;29.00;28.00;;;;;28.35;41.38;97532.75;6162995;28;97485;-59
2022/09/15 11:44:48;;;;;;;;;32.25;31.25;;;;;28.32;41.79;97536.28;6163964;28;97420;-61
2022/09/15 11:47:56;;;;;;;;;27.40;27.40;;;;;28.32;42.34;97527.97;6163375;28;97037;-61
2022/09/15 11:51:03;;;;;;;;;31.00;30.00;;;;;28.34;41.52;97520.09;6163107;28;97067;-59
2022/09/15 11:54:13;;;;;;;;;25.00;24.50;;;;;28.39;41.40;97523.34;6161201;28;96980;-62
2022/09/15 11:57:25;;;;;;;;;26.67;26.67;;;;;28.51;41.79;97510.44;6159619;28;97024;-60
2022/09/15 12:00:30;;;;;;;;;24.00;23.20;;;;;28.64;40.66;97517.38;6159864;28;97659;-59
2022/09/15 12:03:39;;;;;;;;;24.25;24.25;;;;;28.82;40.74;97519.28;6162741;28;97434;-56
2022/09/15 12:06:49;;;;;;;;;25.80;25.80;;;;;28.97;40.17;97502.84;6160983;28;97789;-61
2022/09/15 12:09:53;;;;;;;;;27.33;26.67;;;;;29.18;40.09;97517.78;6162116;28;97425;-59
2022/09/15 12:13:00;;;;;;;;;29.80;29.60;;;;;29.22;39.71;97518.63;6162975;28;97652;-59
2022/09/15 12:16:04;;;;;;;;;31.00;30.25;;;;;29.22;39.22;97513.06;6163481;28;96637;-60
2022/09/15 12:19:16;;;;;;;;;34.50;32.25;;;;;29.17;38.94;97509.88;6160978;28;97456;-60
2022/09/15 12:22:25;;;;;;;;;25.80;25.80;;;;;29.09;39.49;97503.41;6163331;28;98096;-60
2022/09/15 12:25:39;;;;;;;;;28.40;27.60;;;;;29.06;40.88;97493.06;6162223;28;96840;-57
2022/09/15 12:28:56;;;;;;;;;23.80;23.80;;;;;29.04;39.88;97500.16;6163550;28;97433;-58
2022/09/15 12:32:21;;;;;;;;;13.00;12.00;;;;;28.93;39.95;97499.22;6163179;28;97276;-60
2022/09/15 12:35:32;;;;;;;;;31.50;30.50;;;;;28.81;40.28;97498.28;6163025;28;96598;-59
2022/09/15 12:38:36;;;;;;;;;26.20;26.20;;;;;28.74;40.42;97502.91;6156995;28;97459;-60
2022/09/15 12:41:47;;;;;;;;;20.33;20.33;;;;;28.60;40.32;97502.66;6159053;28;99376;-61
2022/09/15 12:44:55;;;;;;;;;27.00;27.00;;;;;28.49;40.65;97502.53;6143275;28;97335;-62
2022/09/15 12:48:04;;;;;;;;;39.25;34.75;;;;;28.36;40.96;97493.59;6156817;28;98764;-60
2022/09/15 12:51:10;;;;;;;;;25.00;25.00;;;;;28.28;41.59;97496.63;6161034;28;97496;-59
2022/09/15 12:54:22;;;;;;;;;31.00;30.00;;;;;28.18;41.42;97497.25;6160838;28;97533;-59
2022/09/15 12:57:30;;;;;;;;;28.75;28.75;;;;;28.07;42.32;97491.50;6158035;28;97111;-60
2022/09/15 13:00:38;;;;;;;;;29.20;29.00;;;;;28.03;42.37;97479.56;6161290;28;97147;-60
2022/09/15 13:04:27;;;;;;;;;29.40;29.40;;;;;27.97;42.54;97478.25;6145589;28;99573;-59
2022/09/15 13:07:52;;;;;;;;;29.00;29.00;;;;;27.91;42.40;97477.75;6158900;28;98254;-61
2022/09/15 13:11:02;;;;;;;;;29.60;29.00;;;;;27.86;42.54;97477.25;6160091;28;96986;-60
2022/09/15 13:14:18;;;;;;;;;29.60;29.00;;;;;27.79;42.77;97480.72;6157588;28;97445;-61
2022/09/15 13:17:25;;;;;;;;;23.60;23.60;;;;;27.70;42.79;97477.41;6158430;28;97194;-61
2022/09/15 13:20:34;;;;;;;;;35.25;33.00;;;;;27.55;43.14;97468.03;6158771;28;97649;-59
2022/09/15 13:23:42;;;;;;;;;28.00;28.00;;;;;27.56;43.30;97464.06;6157828;28;97486;-59
2022/09/15 13:26:51;;;;;;;;;25.60;25.60;;;;;27.55;43.65;97473.56;6158123;28;98032;-61
2022/09/15 13:30:02;;;;;;;;;41.75;36.75;;;;;27.50;44.05;97464.75;6159126;28;96961;-60
2022/09/15 13:33:25;;;;;;;;;31.00;30.00;;;;;27.46;44.22;97464.66;6157662;28;97754;-61
2022/09/15 13:37:05;;;;;;;;;29.50;29.00;;;;;27.42;44.05;97462.97;6158541;28;97391;-60
2022/09/15 13:40:52;;;;;;;;;29.80;29.40;;;;;27.34;44.04;97459.28;6158244;28;96823;-63
2022/09/15 13:44:37;;;;;;;;;37.00;34.00;;;;;27.19;44.62;97453.81;6157495;28;96832;-60
2022/09/15 13:47:58;;;;;;;;;33.20;31.40;;;;;27.19;44.37;97462.13;6128900;28;97204;-58
2022/09/15 13:51:13;;;;;;;;;46.80;40.20;;;;;27.10;44.73;97454.84;6161563;28;96665;-60
2022/09/15 13:54:18;;;;;;;;;35.00;32.40;;;;;27.05;44.95;97457.09;6159832;28;97564;-60
2022/09/15 13:57:22;;;;;;;;;29.25;29.25;;;;;27.00;45.08;97457.41;6169976;28;97254;-60
2022/09/15 14:00:57;;;;;;;;;31.20;30.20;;;;;26.98;45.47;97440.34;6161910;28;98626;-60
2022/09/15 14:04:05;;;;;;;;;35.60;33.00;;;;;26.97;45.90;97433.25;6161920;28;96910;-58
2022/09/15 14:07:22;;;;;;;;;34.00;32.00;;;;;26.94;45.76;97448.59;6143590;28;97045;-60
2022/09/15 14:10:30;;;;;;;;;35.00;33.00;;;;;26.92;46.12;97442.63;6161797;28;97417;-58
2022/09/15 14:13:36;;;;;;;;;32.00;31.00;;;;;26.90;46.04;97441.38;6161003;28;97466;-59
2022/09/15 14:16:39;;;;;;;;;32.60;31.60;;;;;26.86;46.42;97426.66;6161820;28;97142;-61
2022/09/15 14:19:43;;;;;;;;;34.00;32.40;;;;;26.81;46.04;97435.25;6160602;28;98081;-60
2022/09/15 14:22:50;;;;;;;;;36.20;33.20;;;;;26.76;46.25;97430.00;6161308;28;96870;-60
2022/09/15 14:25:53;;;;;;;;;31.60;30.60;;;;;26.62;46.58;97424.97;6163954;28;96503;-60
2022/09/15 14:28:59;;;;;;;;;38.00;34.40;;;;;26.66;46.68;97423.88;6165131;28;97457;-59